createdAt,value
2023-03-28T17:26:20.450Z,45.46
2023-03-28T17:31:28.117Z,46.15
2023-03-28T17:36:36.621Z,46.07
2023-03-28T17:41:46.833Z,45.94
2023-03-28T17:46:54.594Z,46.07
2023-03-28T17:52:03.086Z,46.18
2023-03-28T17:57:13.382Z,46.66
2023-03-28T18:02:21.113Z,47.41
2023-03-28T18:07:28.789Z,47.61
2023-03-28T18:12:39.728Z,47.44
2023-03-28T18:17:47.592Z,47.28
2023-03-28T18:22:55.300Z,47.30
2023-03-28T18:28:05.614Z,47.17
2023-03-28T18:33:13.820Z,47.57
2023-03-28T18:38:23.226Z,47.61
2023-03-28T18:43:34.607Z,47.84
2023-03-28T18:48:43.372Z,47.70
2023-03-28T18:53:51.181Z,48.02
2023-03-28T18:59:02.409Z,47.82
2023-03-28T19:04:12.152Z,47.72
2023-03-28T19:09:20.667Z,47.25
2023-03-28T19:14:31.469Z,46.38
2023-03-28T19:19:39.678Z,46.46
2023-03-28T19:24:47.728Z,46.31
2023-03-28T19:29:58.252Z,46.17
2023-03-28T19:35:06.790Z,46.28
2023-03-28T19:40:16.868Z,47.02
2023-03-28T19:45:27.797Z,45.56
2023-03-28T19:50:36.893Z,45.83
2023-03-28T19:55:44.617Z,45.33
2023-03-28T20:00:55.393Z,46.17
2023-03-28T20:06:05.949Z,45.48
2023-03-28T20:11:15.260Z,46.03
2023-03-28T20:16:25.812Z,45.86
2023-03-28T20:21:33.551Z,46.44
2023-03-28T20:26:41.829Z,46.58
2023-03-28T20:31:52.295Z,46.33
2023-03-28T20:37:00.122Z,46.26
2023-03-28T20:42:09.295Z,46.68
2023-03-28T20:47:25.293Z,47.17
2023-03-28T20:52:32.934Z,47.58
2023-03-28T20:57:42.529Z,47.78
2023-03-28T21:02:55.411Z,47.54
2023-03-28T21:08:04.529Z,47.93
2023-03-28T21:13:13.133Z,48.04
2023-03-28T21:18:23.356Z,48.15
2023-03-28T21:23:30.974Z,48.53
2023-03-28T21:28:38.945Z,48.46
2023-03-28T21:33:49.911Z,48.83
2023-03-28T21:38:58.597Z,48.81
2023-03-28T21:44:06.265Z,48.87
2023-03-28T21:49:18.291Z,48.89
2023-03-28T21:54:26.083Z,49.05
2023-03-28T21:59:33.725Z,49.20
2023-03-28T22:04:43.951Z,48.83
2023-03-28T22:09:51.699Z,49.14
2023-03-28T22:14:59.842Z,48.44
2023-03-28T22:20:11.826Z,48.33
2023-03-28T22:25:19.941Z,48.71
2023-03-28T22:30:27.921Z,49.45
2023-03-28T22:35:38.681Z,49.74
2023-03-28T22:40:46.643Z,49.80
2023-03-28T22:45:54.373Z,50.13
2023-03-28T22:51:04.866Z,50.71
2023-03-28T22:56:12.706Z,50.62
2023-03-28T23:01:23.315Z,50.70
2023-03-28T23:06:34.297Z,50.79
2023-03-28T23:11:42.588Z,51.34
2023-03-28T23:16:50.284Z,51.42
2023-03-28T23:22:00.682Z,51.85
2023-03-28T23:27:09.170Z,52.12
2023-03-28T23:32:16.884Z,51.98
2023-03-28T23:37:27.725Z,52.49
2023-03-28T23:42:35.524Z,53.01
2023-03-28T23:47:43.369Z,52.64
2023-03-28T23:52:53.834Z,53.30
2023-03-28T23:58:04.506Z,53.22
